createdAt,value
2019-05-15T00:01:20.293Z,4.13
2019-05-15T00:03:49.955Z,2.13
2019-05-15T00:06:19.516Z,3.63
2019-05-15T00:08:49.170Z,5.67
2019-05-15T00:11:19.221Z,5.37
2019-05-15T00:13:49.102Z,3.77
2019-05-15T00:16:18.658Z,5.70
2019-05-15T00:18:48.418Z,5.00
2019-05-15T00:21:38.286Z,4.03
2019-05-15T00:24:12.982Z,2.10
2019-05-15T00:26:39.404Z,4.07
2019-05-15T00:29:15.636Z,3.27
2019-05-15T00:31:40.347Z,4.50
2019-05-15T00:34:12.869Z,5.23
2019-05-15T00:36:41.257Z,3.77
2019-05-15T00:39:10.886Z,7.73
2019-05-15T00:41:50.364Z,6.90
2019-05-15T00:44:30.744Z,5.53
2019-05-15T00:47:00.324Z,4.83
2019-05-15T00:49:29.931Z,5.77
2019-05-15T00:51:59.554Z,3.40
2019-05-15T00:54:29.150Z,5.27
2019-05-15T00:56:58.732Z,5.40
2019-05-15T00:59:30.038Z,4.33
2019-05-15T01:01:59.576Z,2.47
2019-05-15T01:04:29.159Z,6.33
2019-05-15T01:06:58.988Z,5.40
2019-05-15T01:09:29.209Z,2.93
2019-05-15T01:11:59.044Z,5.13
2019-05-15T01:14:28.597Z,5.20
2019-05-15T01:16:58.312Z,3.53
2019-05-15T01:19:28.761Z,4.10
2019-05-15T01:21:58.799Z,3.60
2019-05-15T01:24:28.460Z,5.10
2019-05-15T01:26:58.484Z,3.27
2019-05-15T01:29:40.994Z,2.63
2019-05-15T01:31:59.458Z,4.67
2019-05-15T01:34:29.490Z,8.37
2019-05-15T01:36:59.285Z,3.73
2019-05-15T01:39:29.147Z,5.27
2019-05-15T01:41:58.941Z,5.87
2019-05-15T01:44:29.397Z,5.20
2019-05-15T01:46:59.168Z,4.07
2019-05-15T01:49:28.699Z,6.27
2019-05-15T01:52:18.768Z,3.13
2019-05-15T01:54:48.841Z,7.83
2019-05-15T01:57:19.034Z,5.50
2019-05-15T01:59:57.317Z,3.90
2019-05-15T02:02:19.807Z,7.20
2019-05-15T02:04:49.404Z,5.00
2019-05-15T02:07:18.984Z,4.67
2019-05-15T02:09:49.172Z,5.30
2019-05-15T02:12:19.209Z,5.70
2019-05-15T02:14:48.834Z,7.90
2019-05-15T02:17:18.948Z,6.40
2019-05-15T02:19:48.763Z,4.43
2019-05-15T02:22:18.948Z,9.63
2019-05-15T02:24:48.759Z,4.97
2019-05-15T02:27:18.796Z,6.23
2019-05-15T02:29:49.293Z,5.90
2019-05-15T02:32:19.428Z,3.63
2019-05-15T02:34:50.112Z,5.40
2019-05-15T02:37:19.989Z,7.07
2019-05-15T02:39:49.782Z,4.23
2019-05-15T02:42:19.495Z,4.87
2019-05-15T02:44:50.205Z,6.53
2019-05-15T02:47:20.282Z,4.27
2019-05-15T02:49:49.930Z,6.87
2019-05-15T02:52:20.080Z,4.27
2019-05-15T02:54:50.090Z,5.90
2019-05-15T02:57:19.729Z,4.23
2019-05-15T02:59:49.873Z,4.93
2019-05-15T03:02:19.698Z,6.43
2019-05-15T03:04:49.373Z,4.60
2019-05-15T03:07:19.421Z,4.07
2019-05-15T03:09:49.622Z,4.73
2019-05-15T03:12:19.905Z,6.00
2019-05-15T03:14:50.000Z,7.37
2019-05-15T03:17:19.749Z,7.03
2019-05-15T03:20:10.395Z,4.50
2019-05-15T03:22:40.629Z,6.77
2019-05-15T03:25:11.224Z,5.30
2019-05-15T03:27:41.363Z,7.70
2019-05-15T03:30:14.353Z,8.17
2019-05-15T03:32:52.461Z,3.80
2019-05-15T03:35:15.409Z,7.47
2019-05-15T03:37:44.921Z,7.63
2019-05-15T03:40:14.695Z,5.53
2019-05-15T03:42:44.299Z,11.93
2019-05-15T03:45:14.178Z,8.30
2019-05-15T03:47:43.759Z,6.67
2019-05-15T03:50:13.448Z,7.47
2019-05-15T03:52:43.114Z,4.07
2019-05-15T03:55:12.938Z,6.33
2019-05-15T03:57:42.540Z,5.20
2019-05-15T04:00:12.385Z,5.27
2019-05-15T04:02:41.949Z,6.60
2019-05-15T04:05:12.404Z,7.90
2019-05-15T04:07:42.220Z,9.60
2019-05-15T04:10:30.893Z,5.43
2019-05-15T04:13:11.822Z,6.40
2019-05-15T04:15:41.436Z,7.30
2019-05-15T04:18:11.008Z,6.60
2019-05-15T04:20:41.060Z,5.50
2019-05-15T04:23:10.923Z,9.63
2019-05-15T04:25:41.629Z,6.10
2019-05-15T04:28:13.467Z,7.37
2019-05-15T04:30:43.022Z,7.07
2019-05-15T04:33:12.640Z,5.47
2019-05-15T04:35:42.200Z,4.30
2019-05-15T04:38:11.763Z,8.37
2019-05-15T04:40:41.341Z,6.97
2019-05-15T04:43:11.317Z,7.40
2019-05-15T04:45:40.956Z,7.50
2019-05-15T04:48:10.741Z,5.77
2019-05-15T04:50:40.569Z,6.57
2019-05-15T04:53:11.030Z,4.90
2019-05-15T04:55:41.013Z,4.23
2019-05-15T04:58:10.916Z,8.30
2019-05-15T05:00:51.556Z,5.93
2019-05-15T05:03:21.445Z,6.67
2019-05-15T05:05:51.376Z,7.77
2019-05-15T05:08:21.278Z,6.40
2019-05-15T05:10:51.233Z,5.80
2019-05-15T05:13:20.811Z,6.73
2019-05-15T05:15:50.752Z,7.87
2019-05-15T05:18:20.531Z,5.93
2019-05-15T05:20:50.091Z,9.60
2019-05-15T05:23:19.701Z,7.20
2019-05-15T05:25:49.595Z,7.10
2019-05-15T05:28:38.320Z,9.23
2019-05-15T05:31:08.347Z,8.97
2019-05-15T05:33:38.369Z,4.53
2019-05-15T05:36:08.114Z,4.27
2019-05-15T05:38:38.682Z,8.10
2019-05-15T05:41:08.913Z,8.30
2019-05-15T05:43:38.703Z,7.13
2019-05-15T05:46:10.615Z,6.40
2019-05-15T05:48:40.318Z,7.53
2019-05-15T05:51:09.973Z,4.93
2019-05-15T05:53:39.734Z,7.67
2019-05-15T05:56:09.525Z,7.47
2019-05-15T05:58:39.287Z,9.20
2019-05-15T06:01:28.342Z,11.90
2019-05-15T06:03:58.399Z,8.40
2019-05-15T06:06:29.232Z,8.80
2019-05-15T06:08:58.980Z,5.30
2019-05-15T06:11:28.628Z,10.20
2019-05-15T06:13:58.548Z,9.50
2019-05-15T06:16:28.484Z,9.10
2019-05-15T06:18:58.733Z,7.40
2019-05-15T06:21:28.621Z,9.27
2019-05-15T06:24:04.546Z,8.43
2019-05-15T06:26:29.613Z,10.20
2019-05-15T06:28:59.211Z,12.83
2019-05-15T06:31:28.795Z,13.47
2019-05-15T06:33:58.488Z,8.60
2019-05-15T06:36:28.862Z,6.37
2019-05-15T06:38:59.169Z,8.33
2019-05-15T06:41:28.855Z,7.63
2019-05-15T06:43:58.907Z,8.87
2019-05-15T06:46:28.670Z,10.07
2019-05-15T06:49:18.004Z,7.07
2019-05-15T06:51:48.701Z,8.10
2019-05-15T06:54:19.015Z,7.33
2019-05-15T06:57:09.151Z,11.10
2019-05-15T06:59:39.093Z,7.90
2019-05-15T07:02:10.199Z,8.13
2019-05-15T07:04:39.844Z,9.40
2019-05-15T07:07:11.250Z,10.27
2019-05-15T07:09:40.643Z,10.10
2019-05-15T07:12:12.567Z,13.63
2019-05-15T07:14:42.184Z,7.47
2019-05-15T07:17:11.778Z,7.20
2019-05-15T07:19:41.419Z,7.37
2019-05-15T07:22:10.988Z,9.67
2019-05-15T07:24:40.554Z,6.70
2019-05-15T07:27:12.316Z,6.93
2019-05-15T07:29:41.976Z,10.40
2019-05-15T07:32:11.779Z,5.83
2019-05-15T07:34:41.371Z,8.77
2019-05-15T07:37:10.954Z,10.37
2019-05-15T07:39:40.601Z,11.10
2019-05-15T07:42:10.235Z,8.60
2019-05-15T07:44:39.842Z,7.70
2019-05-15T07:47:09.491Z,8.80
2019-05-15T07:49:39.091Z,10.93
2019-05-15T07:52:08.813Z,7.70
2019-05-15T07:54:38.527Z,8.70
2019-05-15T07:57:08.956Z,7.23
2019-05-15T07:59:39.386Z,8.23
2019-05-15T08:02:09.004Z,6.03
2019-05-15T08:04:39.620Z,8.40
2019-05-15T08:07:09.303Z,9.00
2019-05-15T08:09:39.213Z,8.00
2019-05-15T08:12:09.026Z,6.93
2019-05-15T08:14:38.946Z,11.97
2019-05-15T08:17:08.827Z,10.63
2019-05-15T08:19:38.626Z,6.63
2019-05-15T08:22:11.247Z,7.73
2019-05-15T08:24:40.942Z,11.13
2019-05-15T08:27:10.580Z,9.07
2019-05-15T08:29:40.243Z,7.60
2019-05-15T08:32:09.885Z,9.00
2019-05-15T08:34:40.870Z,10.00
2019-05-15T08:37:10.511Z,7.37
2019-05-15T08:39:40.111Z,6.80
2019-05-15T08:42:09.709Z,8.13
2019-05-15T08:44:58.444Z,10.50
2019-05-15T08:47:29.757Z,13.27
2019-05-15T08:49:59.571Z,8.23
2019-05-15T08:52:29.178Z,8.43
2019-05-15T08:54:59.257Z,8.70
2019-05-15T08:57:29.078Z,9.93
2019-05-15T08:59:58.721Z,7.77
2019-05-15T09:02:28.758Z,9.97
2019-05-15T09:04:59.862Z,9.87
2019-05-15T09:07:29.473Z,10.90
2019-05-15T09:09:59.098Z,10.67
2019-05-15T09:12:29.442Z,9.10
2019-05-15T09:14:59.226Z,8.60
2019-05-15T09:17:28.844Z,8.30
2019-05-15T09:19:58.906Z,8.23
2019-05-15T09:22:29.187Z,8.13
2019-05-15T09:24:59.098Z,7.80
2019-05-15T09:27:28.780Z,8.23
2019-05-15T09:29:59.209Z,8.33
2019-05-15T09:32:48.515Z,11.87
2019-05-15T09:35:27.711Z,15.23
2019-05-15T09:38:18.169Z,7.33
2019-05-15T09:40:50.368Z,12.30
2019-05-15T09:43:18.541Z,9.43
2019-05-15T09:45:49.414Z,10.47
2019-05-15T09:48:20.408Z,8.60
2019-05-15T09:50:50.046Z,9.13
2019-05-15T09:53:19.704Z,9.50
2019-05-15T09:55:49.954Z,12.33
2019-05-15T09:58:20.980Z,8.30
2019-05-15T10:00:53.463Z,9.03
2019-05-15T10:03:44.623Z,7.77
2019-05-15T10:06:14.416Z,9.27
2019-05-15T10:08:49.052Z,13.60
2019-05-15T10:11:20.172Z,9.50
2019-05-15T10:13:49.833Z,11.93
2019-05-15T10:16:20.047Z,7.90
2019-05-15T10:18:50.777Z,7.40
2019-05-15T10:21:21.050Z,7.63
2019-05-15T10:23:50.652Z,9.13
2019-05-15T10:26:20.333Z,9.83
2019-05-15T10:28:49.953Z,9.63
2019-05-15T10:31:19.846Z,11.33
2019-05-15T10:33:49.890Z,6.63
2019-05-15T10:36:19.572Z,8.97
2019-05-15T10:38:49.282Z,9.13
2019-05-15T10:41:19.103Z,7.23
2019-05-15T10:43:56.013Z,10.57
2019-05-15T10:46:20.065Z,9.07
2019-05-15T10:48:49.760Z,7.83
2019-05-15T10:51:19.850Z,6.53
2019-05-15T10:53:49.547Z,8.10
2019-05-15T10:56:19.282Z,7.73
2019-05-15T10:58:50.666Z,8.70
2019-05-15T11:01:20.179Z,7.67
2019-05-15T11:03:49.933Z,5.77
2019-05-15T11:06:19.608Z,12.30
2019-05-15T11:08:51.619Z,8.20
2019-05-15T11:11:20.564Z,8.13
2019-05-15T11:13:50.205Z,6.37
2019-05-15T11:16:21.226Z,8.53
2019-05-15T11:18:53.523Z,7.33
2019-05-15T11:21:22.486Z,6.57
2019-05-15T11:23:52.107Z,9.90
2019-05-15T11:26:21.832Z,11.63
2019-05-15T11:28:51.636Z,7.90
2019-05-15T11:31:24.607Z,7.87
2019-05-15T11:33:52.555Z,10.33
2019-05-15T11:36:43.581Z,5.73
2019-05-15T11:39:18.076Z,8.40
2019-05-15T11:41:45.689Z,9.37
2019-05-15T11:44:15.288Z,6.93
2019-05-15T11:46:44.870Z,8.53
2019-05-15T11:49:14.535Z,8.77
2019-05-15T11:51:44.146Z,8.27
2019-05-15T11:54:13.734Z,14.80
2019-05-15T11:56:43.366Z,10.33
2019-05-15T11:59:13.008Z,10.67
2019-05-15T12:01:42.606Z,9.10
2019-05-15T12:04:26.737Z,8.47
2019-05-15T12:06:56.983Z,6.00
2019-05-15T12:09:14.699Z,6.50
2019-05-15T12:11:44.353Z,5.33
2019-05-15T12:14:13.961Z,7.07
2019-05-15T12:17:01.185Z,8.27
2019-05-15T12:19:17.393Z,5.67
2019-05-15T12:21:50.428Z,6.90
2019-05-15T12:24:17.464Z,9.10
2019-05-15T12:26:48.907Z,7.07
2019-05-15T12:29:18.338Z,11.00
2019-05-15T12:31:49.562Z,6.90
2019-05-15T12:34:19.429Z,5.60
2019-05-15T12:36:56.663Z,6.93
2019-05-15T12:39:22.166Z,5.27
2019-05-15T13:02:01.808Z,6.37
2019-05-15T13:04:31.420Z,5.37
2019-05-15T13:07:12.907Z,10.30
2019-05-15T13:09:32.456Z,11.97
2019-05-15T13:12:02.012Z,10.27
2019-05-15T13:14:31.660Z,7.13
2019-05-15T13:17:01.336Z,6.90
2019-05-15T13:19:31.491Z,6.80
2019-05-15T13:22:01.111Z,4.67
2019-05-15T13:24:30.796Z,6.10
2019-05-15T13:27:00.473Z,5.83
2019-05-15T13:29:30.104Z,6.20
2019-05-15T13:32:18.762Z,4.73
2019-05-15T13:34:48.970Z,3.87
2019-05-15T13:37:26.733Z,4.78
2019-05-15T13:39:50.031Z,7.62
2019-05-15T13:42:19.662Z,5.90
2019-05-15T13:44:49.246Z,6.33
2019-05-15T13:47:18.931Z,5.87
2019-05-15T13:49:48.481Z,6.85
2019-05-15T13:52:18.816Z,7.35
2019-05-15T13:54:48.644Z,4.73
2019-05-15T13:57:18.251Z,7.42
2019-05-15T13:59:48.389Z,5.30
2019-05-15T14:02:18.695Z,4.45
2019-05-15T14:04:49.053Z,5.13
2019-05-15T14:07:19.364Z,7.00
2019-05-15T14:09:49.329Z,4.87
2019-05-15T14:12:19.246Z,5.10
2019-05-15T14:14:49.162Z,4.45
2019-05-15T14:17:20.203Z,5.03
2019-05-15T14:19:49.936Z,9.83
2019-05-15T14:22:21.736Z,10.50
2019-05-15T14:24:58.856Z,6.97
2019-05-15T14:27:28.744Z,4.63
2019-05-15T14:29:58.589Z,4.43
2019-05-15T14:32:38.346Z,4.93
2019-05-15T14:35:02.412Z,7.93
2019-05-15T14:37:32.273Z,6.10
2019-05-15T14:40:03.310Z,8.67
2019-05-15T14:42:33.303Z,7.50
2019-05-15T14:45:08.618Z,10.17
2019-05-15T14:47:39.515Z,6.37
2019-05-15T14:50:32.017Z,6.00
2019-05-15T14:53:02.901Z,9.77
2019-05-15T14:55:34.334Z,6.90
2019-05-15T14:58:04.258Z,5.37
2019-05-15T15:00:35.093Z,5.37
2019-05-15T15:03:05.465Z,4.37
2019-05-15T15:05:35.200Z,9.13
2019-05-15T15:08:17.354Z,8.27
2019-05-15T15:10:38.240Z,5.97
2019-05-15T15:13:09.233Z,8.17
2019-05-15T15:15:41.837Z,7.63
2019-05-15T15:18:10.552Z,4.47
2019-05-15T15:20:40.274Z,8.13
2019-05-15T15:23:12.924Z,10.37
2019-05-15T15:25:42.567Z,11.10
2019-05-15T15:28:12.275Z,8.90
2019-05-15T15:30:42.413Z,10.27
2019-05-15T15:33:12.129Z,9.37
2019-05-15T15:35:41.845Z,7.10
2019-05-15T15:38:13.442Z,9.80
2019-05-15T15:40:42.969Z,7.93
2019-05-15T15:43:17.417Z,6.40
2019-05-15T15:45:48.447Z,9.43
2019-05-15T15:48:19.302Z,5.93
2019-05-15T15:50:49.127Z,9.23
2019-05-15T15:53:19.183Z,5.50
2019-05-15T15:55:50.555Z,10.23
2019-05-15T15:58:20.621Z,9.97
2019-05-15T16:00:50.222Z,13.93
2019-05-15T16:03:19.897Z,8.00
2019-05-15T16:05:49.551Z,8.67
2019-05-15T16:08:19.210Z,7.43
2019-05-15T16:10:48.844Z,9.67
2019-05-15T16:13:20.683Z,5.73
2019-05-15T16:15:52.007Z,18.67
2019-05-15T16:18:21.705Z,12.73
2019-05-15T16:20:58.065Z,8.27
2019-05-15T16:23:49.281Z,21.63
2019-05-15T16:26:15.303Z,15.87
2019-05-15T16:28:44.991Z,19.00
2019-05-15T16:31:34.021Z,25.93
2019-05-15T16:34:11.655Z,7.60
2019-05-15T16:36:41.410Z,7.03
2019-05-15T16:39:45.631Z,8.77
2019-05-15T16:42:22.538Z,11.03
2019-05-15T16:45:20.001Z,10.00
2019-05-15T16:47:55.527Z,9.63
2019-05-15T16:50:25.360Z,24.27
2019-05-15T16:52:58.435Z,15.30
2019-05-15T16:55:31.067Z,7.67
2019-05-15T16:58:04.431Z,10.47
2019-05-15T17:00:34.291Z,13.20
2019-05-15T17:03:10.107Z,8.70
2019-05-15T17:05:58.758Z,13.83
2019-05-15T17:08:33.638Z,13.63
2019-05-15T17:11:03.498Z,7.90
2019-05-15T17:13:35.698Z,13.30
2019-05-15T17:16:18.746Z,12.43
2019-05-15T17:18:50.457Z,14.47
2019-05-15T17:21:39.446Z,11.57
2019-05-15T17:24:09.501Z,13.30
2019-05-15T17:26:43.501Z,11.50
2019-05-15T17:29:24.677Z,10.67
2019-05-15T17:32:01.215Z,19.37
2019-05-15T17:34:31.030Z,13.50
2019-05-15T17:37:04.263Z,11.27
2019-05-15T17:39:40.844Z,7.47
2019-05-15T17:42:05.587Z,10.77
2019-05-15T17:44:37.777Z,13.53
2019-05-15T17:47:10.824Z,7.97
2019-05-15T17:50:18.886Z,15.97
2019-05-15T17:52:49.143Z,22.60
2019-05-15T17:56:07.226Z,10.67
2019-05-15T17:58:38.154Z,11.07
2019-05-15T18:01:09.251Z,11.90
2019-05-15T18:03:39.409Z,9.00
2019-05-15T18:06:09.158Z,12.87
2019-05-15T18:08:39.199Z,8.13
2019-05-15T18:11:12.050Z,7.93
2019-05-15T18:13:41.899Z,12.03
2019-05-15T18:16:14.006Z,9.00
2019-05-15T18:18:43.805Z,12.57
2019-05-15T18:21:18.395Z,9.90
2019-05-15T18:24:09.244Z,8.00
2019-05-15T18:26:41.167Z,11.47
2019-05-15T18:29:10.847Z,13.40
2019-05-15T18:31:59.547Z,8.33
2019-05-15T18:34:29.177Z,15.00
2019-05-15T18:36:58.868Z,8.43
2019-05-15T18:39:29.193Z,15.07
2019-05-15T18:41:59.078Z,12.13
2019-05-15T18:44:48.293Z,9.93
2019-05-15T18:47:18.798Z,9.70
2019-05-15T18:50:03.750Z,11.20
2019-05-15T18:52:28.563Z,8.07
2019-05-15T18:54:55.516Z,9.67
2019-05-15T18:57:25.264Z,9.17
2019-05-15T18:59:54.903Z,7.80
2019-05-15T19:02:24.984Z,35.03
2019-05-15T19:04:58.532Z,10.40
2019-05-15T19:07:39.705Z,15.93
2019-05-15T19:10:14.364Z,21.70
2019-05-15T19:12:54.548Z,14.40
2019-05-15T19:15:28.614Z,14.60
2019-05-15T19:18:01.218Z,13.57
2019-05-15T19:20:33.637Z,12.03
2019-05-15T19:23:03.387Z,10.20
2019-05-15T19:25:36.351Z,10.60
2019-05-15T19:28:08.476Z,13.70
2019-05-15T19:30:40.671Z,8.87
2019-05-15T19:33:37.063Z,19.93
2019-05-15T19:36:02.291Z,14.77
2019-05-15T19:38:37.638Z,15.37
2019-05-15T19:41:09.699Z,28.97
2019-05-15T19:43:42.452Z,28.60
2019-05-15T19:46:12.231Z,24.57
2019-05-15T19:48:42.350Z,17.87
2019-05-15T19:51:12.217Z,19.73
2019-05-15T19:53:43.574Z,13.00
2019-05-15T19:56:15.869Z,13.67
2019-05-15T19:58:47.985Z,16.77
2019-05-15T20:01:20.820Z,45.17
2019-05-15T20:03:53.227Z,14.13
2019-05-15T20:06:23.330Z,13.77
2019-05-15T20:08:53.521Z,10.17
2019-05-15T20:11:27.888Z,15.60
2019-05-15T20:13:58.307Z,12.37
2019-05-15T20:16:29.696Z,12.27
2019-05-15T20:18:59.507Z,11.93
2019-05-15T20:21:49.744Z,18.00
2019-05-15T20:24:19.835Z,15.43
2019-05-15T20:26:49.551Z,21.60
2019-05-15T20:29:19.257Z,22.17
2019-05-15T20:31:49.169Z,13.83
2019-05-15T20:34:21.948Z,17.83
2019-05-15T20:36:51.647Z,16.57
2019-05-15T20:39:21.429Z,14.90
2019-05-15T20:41:51.206Z,13.40
2019-05-15T20:44:20.890Z,12.07
2019-05-15T20:46:51.082Z,12.37
2019-05-15T20:49:20.839Z,15.80
2019-05-15T20:51:50.645Z,12.43
2019-05-15T20:54:20.319Z,10.70
2019-05-15T20:56:50.069Z,17.80
2019-05-15T20:59:19.775Z,18.43
2019-05-15T21:01:50.898Z,16.40
2019-05-15T21:04:23.278Z,16.13
2019-05-15T21:06:52.106Z,12.23
2019-05-15T21:09:21.994Z,15.77
2019-05-15T21:11:51.685Z,14.00
2019-05-15T21:14:21.362Z,13.47
2019-05-15T21:16:51.000Z,10.93
2019-05-15T21:19:20.733Z,11.13
2019-05-15T21:21:50.371Z,13.57
2019-05-15T21:24:20.086Z,10.83
2019-05-15T21:26:49.769Z,11.93
2019-05-15T21:29:19.480Z,12.70
2019-05-15T21:31:49.235Z,13.40
2019-05-15T21:34:33.400Z,13.77
2019-05-15T21:36:52.114Z,12.10
2019-05-15T21:39:22.977Z,11.60
2019-05-15T21:41:52.691Z,12.47
2019-05-15T21:44:22.356Z,11.40
2019-05-15T21:46:52.031Z,13.27
2019-05-15T21:49:21.756Z,11.20
2019-05-15T21:51:51.458Z,15.00
2019-05-15T21:54:21.688Z,15.77
2019-05-15T21:56:51.434Z,14.43
2019-05-15T21:59:21.104Z,14.93
2019-05-15T22:01:50.805Z,15.83
2019-05-15T22:04:20.476Z,14.33
2019-05-15T22:06:53.370Z,18.33
2019-05-15T22:09:23.470Z,17.23
2019-05-15T22:11:57.196Z,17.60
2019-05-15T22:14:24.512Z,13.63
2019-05-15T22:16:54.144Z,14.83
2019-05-15T22:19:23.873Z,19.53
2019-05-15T22:21:53.552Z,14.43
2019-05-15T22:24:23.359Z,18.13
2019-05-15T22:27:12.272Z,16.30
2019-05-15T22:29:43.038Z,18.27
2019-05-15T22:32:31.714Z,17.50
2019-05-15T22:35:09.736Z,15.60
2019-05-15T22:37:52.455Z,17.27
2019-05-15T22:40:41.236Z,14.70
2019-05-15T22:43:11.004Z,17.33
2019-05-15T22:45:40.634Z,17.03
2019-05-15T22:48:10.380Z,18.47
2019-05-15T22:50:40.055Z,18.83
2019-05-15T22:53:11.101Z,15.70
2019-05-15T22:55:43.069Z,18.67
2019-05-15T22:58:13.049Z,18.47
2019-05-15T23:00:42.916Z,19.70
2019-05-15T23:03:12.529Z,18.47
2019-05-15T23:05:42.252Z,18.23
2019-05-15T23:08:11.876Z,22.53
2019-05-15T23:10:41.526Z,16.90
2019-05-15T23:13:12.865Z,16.60
2019-05-15T23:15:42.483Z,14.40
2019-05-15T23:18:13.358Z,20.20
2019-05-15T23:20:43.014Z,18.93
2019-05-15T23:23:14.600Z,20.77
2019-05-15T23:25:44.212Z,18.13
2019-05-15T23:28:13.939Z,20.70
2019-05-15T23:30:43.650Z,19.80
2019-05-15T23:33:13.285Z,17.37
2019-05-15T23:35:42.883Z,19.33
2019-05-15T23:38:12.526Z,17.07
2019-05-15T23:40:42.156Z,16.33
2019-05-15T23:43:11.983Z,15.90
2019-05-15T23:46:00.602Z,20.77
2019-05-15T23:48:30.292Z,20.93
2019-05-15T23:50:59.893Z,20.07
2019-05-15T23:53:29.536Z,16.33
2019-05-15T23:56:01.504Z,14.97
2019-05-15T23:58:31.172Z,15.37
